Time;durP1;ratioP1;P1;durP2;ratioP2;P2;SDS_P1;SDS_P2;PMS_P1;PMS_P2;Temp;Humidity;BMP_temperature;BMP_pressure;BME280_temperature;BME280_humidity;BME280_pressure;Samples;Min_cycle;Max_cycle;Signal;HPM_P1;HPM_P2
2021/05/08 00:00:07;;;;;;;18.37;10.30;;;5.00;99.90;;;;;;4964145;28;20791;-50
2021/05/08 00:02:33;;;;;;;14.57;9.80;;;5.00;99.90;;;;;;4959428;28;20418;-50
2021/05/08 00:04:58;;;;;;;15.90;10.87;;;5.00;99.90;;;;;;4968672;28;20483;-50
2021/05/08 00:07:24;;;;;;;19.10;10.27;;;5.30;99.90;;;;;;4970810;28;20407;-57
2021/05/08 00:09:50;;;;;;;17.40;10.38;;;4.80;99.90;;;;;;4969095;28;20435;-50
2021/05/08 00:12:15;;;;;;;17.27;10.70;;;5.00;99.90;;;;;;4970961;28;20407;-50
2021/05/08 00:14:41;;;;;;;19.20;10.48;;;4.80;99.90;;;;;;4969387;28;20517;-50
2021/05/08 00:17:07;;;;;;;16.80;10.57;;;4.80;99.90;;;;;;4970833;28;20389;-50
2021/05/08 00:19:33;;;;;;;17.70;10.93;;;4.70;99.90;;;;;;4969469;28;20418;-50
2021/05/08 00:21:59;;;;;;;19.23;12.55;;;4.70;99.90;;;;;;4970813;28;20414;-50
2021/05/08 00:24:24;;;;;;;18.75;11.07;;;4.70;99.90;;;;;;4970555;28;20724;-51
2021/05/08 00:26:50;;;;;;;17.70;10.83;;;4.70;99.90;;;;;;4965435;28;20405;-51
2021/05/08 00:29:16;;;;;;;18.15;11.98;;;4.70;99.90;;;;;;4950732;29;20414;-51
2021/05/08 00:31:42;;;;;;;18.43;11.20;;;4.80;99.90;;;;;;4964155;28;20479;-51
2021/05/08 00:34:07;;;;;;;17.40;10.80;;;4.60;99.90;;;;;;4970547;28;20705;-50
2021/05/08 00:36:34;;;;;;;18.60;11.17;;;4.60;99.90;;;;;;4965773;28;20417;-51
2021/05/08 00:39:00;;;;;;;17.00;11.82;;;4.50;99.90;;;;;;4970234;28;20423;-51
2021/05/08 00:41:25;;;;;;;19.47;11.73;;;4.40;99.90;;;;;;4970350;28;20472;-50
2021/05/08 00:43:58;;;;;;;17.58;11.82;;;4.30;99.90;;;;;;4958241;28;20478;-50
2021/05/08 00:46:25;;;;;;;18.67;11.75;;;4.20;99.90;;;;;;4967144;28;20499;-50
2021/05/08 00:48:51;;;;;;;18.35;10.27;;;4.90;99.90;;;;;;4969362;28;20475;-50
2021/05/08 00:51:18;;;;;;;16.45;10.90;;;4.20;99.90;;;;;;4969639;28;20399;-49
2021/05/08 00:53:44;;;;;;;19.73;10.95;;;4.20;99.90;;;;;;4969380;28;20396;-50
2021/05/08 00:56:10;;;;;;;17.35;10.63;;;4.30;99.90;;;;;;4955628;28;20386;-50
2021/05/08 00:58:36;;;;;;;18.73;11.07;;;4.20;99.90;;;;;;4956445;28;20407;-50
2021/05/08 01:01:02;;;;;;;20.17;11.50;;;5.30;99.90;;;;;;4970325;28;20441;-49
2021/05/08 01:03:27;;;;;;;18.05;11.38;;;4.20;99.90;;;;;;4970080;28;20392;-56
2021/05/08 01:05:53;;;;;;;18.38;9.98;;;4.30;99.90;;;;;;4969499;28;20392;-50
2021/05/08 01:08:19;;;;;;;15.00;10.23;;;4.30;99.90;;;;;;4970080;28;20439;-50
2021/05/08 01:10:45;;;;;;;17.15;10.13;;;4.20;99.90;;;;;;4971998;28;20470;-50
2021/05/08 01:13:11;;;;;;;18.47;11.27;;;4.20;99.90;;;;;;4939079;29;20472;-49
2021/05/08 01:15:37;;;;;;;15.63;10.90;;;4.10;99.90;;;;;;4953600;29;20393;-51
2021/05/08 01:18:03;;;;;;;15.97;10.70;;;4.00;99.90;;;;;;4954308;29;20834;-51
2021/05/08 01:20:29;;;;;;;15.97;10.53;;;3.90;99.90;;;;;;4936468;29;20421;-56
2021/05/08 01:22:55;;;;;;;17.90;11.57;;;4.00;99.90;;;;;;4954288;29;20457;-51
2021/05/08 01:25:24;;;;;;;19.90;12.10;;;4.00;99.90;;;;;;4954893;29;20390;-50
2021/05/08 01:27:54;;;;;;;17.23;11.10;;;6.00;99.90;;;;;;4953407;29;20404;-50
2021/05/08 01:30:22;;;;;;;17.00;10.30;;;3.80;99.90;;;;;;4954790;29;20401;-50
2021/05/08 01:32:48;;;;;;;16.27;10.65;;;3.80;99.90;;;;;;4953435;29;20473;-51
2021/05/08 01:35:15;;;;;;;17.00;10.77;;;5.00;99.90;;;;;;4954189;29;20397;-50
2021/05/08 01:37:40;;;;;;;14.85;10.15;;;4.00;99.90;;;;;;4953547;29;20532;-49
2021/05/08 01:40:11;;;;;;;16.07;10.00;;;4.00;99.90;;;;;;4954509;29;20508;-49
2021/05/08 01:42:38;;;;;;;16.00;10.00;;;4.00;99.90;;;;;;4953371;29;20412;-50
2021/05/08 01:45:15;;;;;;;15.45;9.80;;;3.90;99.90;;;;;;4953761;28;20390;-51
2021/05/08 01:47:42;;;;;;;16.15;9.57;;;4.00;99.90;;;;;;4955398;29;20390;-51
2021/05/08 01:50:10;;;;;;;17.45;10.55;;;4.00;99.90;;;;;;4954726;29;20440;-50
2021/05/08 01:52:36;;;;;;;15.85;10.13;;;4.00;99.90;;;;;;4953012;29;20394;-50
2021/05/08 01:55:17;;;;;;;15.82;10.18;;;3.90;99.90;;;;;;4954269;29;20394;-50
2021/05/08 01:57:45;;;;;;;15.30;9.65;;;3.90;99.90;;;;;;4953185;29;20394;-50
2021/05/08 02:00:18;;;;;;;14.93;9.90;;;4.90;99.90;;;;;;4953531;29;20964;-49
2021/05/08 02:02:45;;;;;;;15.65;10.13;;;4.00;99.90;;;;;;4952984;29;20409;-50
2021/05/08 02:05:10;;;;;;;18.13;10.50;;;4.40;99.90;;;;;;4953748;29;20449;-50
2021/05/08 02:07:38;;;;;;;16.80;10.57;;;4.00;99.90;;;;;;4953697;29;20417;-50
2021/05/08 02:10:11;;;;;;;18.57;10.20;;;4.00;99.90;;;;;;4953889;29;20398;-50
2021/05/08 02:12:38;;;;;;;14.85;10.60;;;4.00;99.90;;;;;;4952840;29;20393;-50
2021/05/08 02:15:17;;;;;;;20.10;10.38;;;4.00;99.90;;;;;;4953684;29;20473;-50
2021/05/08 02:17:43;;;;;;;17.23;10.30;;;4.00;99.90;;;;;;4952996;29;20489;-50
2021/05/08 02:20:16;;;;;;;15.48;10.32;;;3.90;99.90;;;;;;4953015;28;20822;-49
2021/05/08 02:22:43;;;;;;;17.13;10.13;;;3.90;99.90;;;;;;4952911;29;20874;-50
2021/05/08 02:25:11;;;;;;;17.30;10.20;;;3.80;99.90;;;;;;4953743;29;20386;-49
2021/05/08 02:27:39;;;;;;;16.67;10.13;;;3.80;99.90;;;;;;4952576;29;20549;-50
2021/05/08 02:30:10;;;;;;;16.13;9.93;;;6.20;99.90;;;;;;4936398;29;20406;-49
2021/05/08 02:32:36;;;;;;;17.45;10.60;;;3.70;99.90;;;;;;4952691;29;20471;-50
2021/05/08 02:35:04;;;;;;;17.77;10.70;;;3.70;99.90;;;;;;4953399;29;20755;-50
2021/05/08 02:37:30;;;;;;;18.08;11.38;;;3.70;99.90;;;;;;4952999;29;20460;-57
2021/05/08 02:39:56;;;;;;;17.02;11.15;;;3.70;99.90;;;;;;4952974;29;20497;-50
2021/05/08 02:42:21;;;;;;;18.63;11.20;;;4.70;99.90;;;;;;4953409;29;20398;-49
2021/05/08 02:44:47;;;;;;;16.60;11.10;;;3.70;99.90;;;;;;4952554;29;20393;-50
2021/05/08 02:47:19;;;;;;;18.00;11.10;;;5.20;99.90;;;;;;4953214;29;20422;-49
2021/05/08 02:49:49;;;;;;;16.00;10.27;;;3.70;99.90;;;;;;4952402;29;20386;-50
2021/05/08 02:52:16;;;;;;;17.98;10.80;;;4.40;99.90;;;;;;4935774;29;20402;-50
2021/05/08 02:54:42;;;;;;;16.80;10.43;;;3.70;99.90;;;;;;4952245;29;20386;-50
2021/05/08 02:57:08;;;;;;;17.00;10.70;;;3.70;99.90;;;;;;4952934;29;20390;-50
2021/05/08 02:59:34;;;;;;;17.35;10.98;;;3.70;99.90;;;;;;4951842;29;20924;-56
2021/05/08 03:02:00;;;;;;;15.98;10.63;;;3.70;99.90;;;;;;4952724;29;20548;-50
2021/05/08 03:04:26;;;;;;;16.90;10.07;;;3.80;99.90;;;;;;4952947;29;20467;-50
2021/05/08 03:06:52;;;;;;;17.70;10.53;;;3.70;99.90;;;;;;4952008;29;20873;-50
2021/05/08 03:09:17;;;;;;;16.57;10.90;;;3.70;99.90;;;;;;4935629;29;20400;-50
2021/05/08 03:11:43;;;;;;;15.30;9.63;;;3.70;99.90;;;;;;4951999;29;20414;-50
2021/05/08 03:14:09;;;;;;;15.50;10.47;;;3.60;99.90;;;;;;4952903;29;20462;-49
2021/05/08 03:16:38;;;;;;;16.83;10.07;;;3.70;99.90;;;;;;4951685;29;20484;-52
2021/05/08 03:19:04;;;;;;;15.85;10.13;;;3.50;99.90;;;;;;4952235;29;20410;-50
2021/05/08 03:21:29;;;;;;;15.98;9.65;;;4.10;99.90;;;;;;4952559;29;20401;-50
2021/05/08 03:23:55;;;;;;;15.70;10.57;;;4.50;99.90;;;;;;4951768;29;20397;-49
2021/05/08 03:26:21;;;;;;;16.70;10.80;;;3.50;99.90;;;;;;4952469;29;20751;-50
2021/05/08 03:28:46;;;;;;;15.63;9.73;;;3.50;99.90;;;;;;4951522;29;20886;-51
2021/05/08 03:31:12;;;;;;;16.83;10.07;;;3.60;99.90;;;;;;4952251;29;20394;-50
2021/05/08 03:33:37;;;;;;;19.77;10.40;;;3.60;99.90;;;;;;4950783;28;20406;-50
2021/05/08 03:36:03;;;;;;;15.97;9.80;;;3.50;99.90;;;;;;4952316;29;20860;-50
2021/05/08 03:38:29;;;;;;;16.02;10.00;;;3.60;99.90;;;;;;4952219;29;20929;-50
2021/05/08 03:40:54;;;;;;;14.10;9.30;;;3.60;99.90;;;;;;4951381;29;20905;-50
2021/05/08 03:43:20;;;;;;;14.53;9.60;;;4.40;99.90;;;;;;4952295;29;20473;-50
2021/05/08 03:45:49;;;;;;;15.50;9.80;;;3.60;99.90;;;;;;4950920;29;20465;-50
2021/05/08 03:48:14;;;;;;;14.00;9.50;;;3.70;99.90;;;;;;4952194;29;20385;-50
2021/05/08 03:50:40;;;;;;;15.67;9.90;;;3.70;99.90;;;;;;4951431;29;20396;-49
2021/05/08 03:53:05;;;;;;;18.52;9.82;;;3.60;99.90;;;;;;4951801;29;20390;-50
2021/05/08 03:55:34;;;;;;;15.80;9.90;;;5.60;99.90;;;;;;4934718;29;20402;-56
2021/05/08 03:58:00;;;;;;;14.05;9.27;;;3.60;99.90;;;;;;4951740;29;20426;-50
2021/05/08 04:00:26;;;;;;;16.17;10.43;;;6.10;99.90;;;;;;4951980;29;20479;-50
2021/05/08 04:02:51;;;;;;;14.52;8.98;;;3.80;99.90;;;;;;4951056;29;20397;-50
2021/05/08 04:05:17;;;;;;;16.27;9.80;;;3.90;99.90;;;;;;4952247;29;20726;-50
2021/05/08 04:07:43;;;;;;;13.82;9.32;;;3.80;99.90;;;;;;4951244;29;20793;-50
2021/05/08 04:10:09;;;;;;;14.38;9.40;;;3.80;99.90;;;;;;4951789;29;20402;-50
2021/05/08 04:12:35;;;;;;;14.52;9.30;;;3.80;99.90;;;;;;4950937;29;20394;-56
2021/05/08 04:15:02;;;;;;;14.23;8.93;;;3.80;99.90;;;;;;4951513;29;20400;-51
2021/05/08 04:17:28;;;;;;;13.50;8.70;;;3.80;99.90;;;;;;4951679;29;20396;-51
2021/05/08 04:19:53;;;;;;;14.57;9.60;;;4.00;99.90;;;;;;4950599;29;21121;-49
2021/05/08 04:22:19;;;;;;;12.80;8.30;;;4.60;99.90;;;;;;4934488;29;20406;-50
2021/05/08 04:24:44;;;;;;;15.20;8.87;;;3.80;99.90;;;;;;4950628;29;20386;-51
2021/05/08 04:27:10;;;;;;;15.40;9.07;;;3.80;99.90;;;;;;4951635;29;20386;-49
2021/05/08 04:29:36;;;;;;;15.40;8.65;;;3.90;99.90;;;;;;4951022;29;20715;-50
2021/05/08 04:32:02;;;;;;;15.80;9.30;;;3.90;99.90;;;;;;4951778;29;20758;-49
2021/05/08 04:34:27;;;;;;;14.18;9.30;;;4.00;99.90;;;;;;4951510;29;20386;-50
2021/05/08 04:36:53;;;;;;;14.32;9.05;;;4.00;99.90;;;;;;4950781;29;21020;-50
2021/05/08 04:39:19;;;;;;;13.53;9.20;;;4.20;99.90;;;;;;4951633;29;20556;-50
2021/05/08 04:41:44;;;;;;;13.27;8.77;;;5.00;99.90;;;;;;4950686;29;20445;-50
2021/05/08 04:44:10;;;;;;;15.32;9.07;;;4.30;99.90;;;;;;4953235;28;20746;-50
2021/05/08 04:46:36;;;;;;;18.97;9.90;;;4.30;99.90;;;;;;4954505;29;20753;-56
2021/05/08 04:49:02;;;;;;;13.93;8.90;;;4.50;99.90;;;;;;4955346;29;20393;-50
2021/05/08 04:51:28;;;;;;;14.20;8.93;;;4.80;99.90;;;;;;4938297;29;20410;-50
2021/05/08 04:53:53;;;;;;;15.73;9.63;;;5.20;99.90;;;;;;4954566;29;20381;-50
2021/05/08 04:56:19;;;;;;;13.53;8.30;;;5.90;99.90;;;;;;4955366;29;20386;-50
2021/05/08 04:58:45;;;;;;;12.80;7.97;;;6.80;99.90;;;;;;4954303;29;20474;-51
2021/05/08 05:01:10;;;;;;;10.65;7.20;;;8.00;99.90;;;;;;4955079;29;20404;-50
2021/05/08 05:03:37;;;;;;;12.43;6.60;;;9.20;99.90;;;;;;4954450;29;20394;-52
2021/05/08 05:06:03;;;;;;;11.60;7.10;;;10.40;99.90;;;;;;4955100;29;20401;-51
2021/05/08 05:08:29;;;;;;;11.85;6.80;;;11.30;99.90;;;;;;4955382;29;20382;-51
2021/05/08 05:10:55;;;;;;;11.00;7.30;;;12.10;99.90;;;;;;4954319;29;20444;-51
2021/05/08 05:13:22;;;;;;;10.75;6.93;;;12.50;99.90;;;;;;4955104;29;20781;-52
2021/05/08 05:15:48;;;;;;;9.40;6.60;;;13.30;99.90;;;;;;4936836;29;20952;-51
2021/05/08 05:18:14;;;;;;;11.10;7.27;;;13.90;97.60;;;;;;4954885;29;20896;-51
2021/05/08 05:20:40;;;;;;;9.70;6.82;;;14.50;95.40;;;;;;4953697;29;20418;-53
2021/05/08 05:23:06;;;;;;;9.88;6.63;;;15.10;93.40;;;;;;4954715;29;20441;-51
2021/05/08 05:25:32;;;;;;;12.40;7.07;;;15.60;92.00;;;;;;4954731;29;20397;-58
2021/05/08 05:27:58;;;;;;;10.75;6.90;;;15.90;89.40;;;;;;4953704;29;20778;-52
2021/05/08 05:30:23;;;;;;;11.70;6.43;;;16.50;86.20;;;;;;4954699;29;20432;-52
2021/05/08 05:32:49;;;;;;;12.13;7.00;;;17.00;82.00;;;;;;4954144;29;20418;-52
2021/05/08 05:35:15;;;;;;;10.02;6.57;;;17.10;79.70;;;;;;4954543;29;20426;-51
2021/05/08 05:37:41;;;;;;;11.00;7.38;;;17.30;78.60;;;;;;4953635;29;20398;-52
2021/05/08 05:40:08;;;;;;;9.13;6.20;;;17.30;76.20;;;;;;4954330;29;20420;-51
2021/05/08 05:42:33;;;;;;;11.32;6.53;;;17.10;75.80;;;;;;4954273;29;20734;-59
2021/05/08 05:44:59;;;;;;;9.57;6.47;;;16.80;77.90;;;;;;4953967;29;20393;-52
2021/05/08 05:47:27;;;;;;;9.90;6.33;;;17.10;77.00;;;;;;4954460;29;20394;-51
2021/05/08 05:49:54;;;;;;;8.73;6.45;;;17.60;73.60;;;;;;4953656;29;20393;-52
2021/05/08 05:52:21;;;;;;;8.77;6.00;;;17.40;72.80;;;;;;4955815;28;20745;-53
2021/05/08 05:54:48;;;;;;;10.20;6.40;;;17.60;73.40;;;;;;4959818;28;20754;-54
2021/05/08 05:57:15;;;;;;;10.38;6.57;;;17.90;71.30;;;;;;4968381;28;20386;-55
2021/05/08 05:59:41;;;;;;;10.18;6.50;;;17.90;68.50;;;;;;4955371;28;20455;-51
2021/05/08 06:02:08;;;;;;;10.77;6.85;;;17.40;70.80;;;;;;4958599;28;20406;-52
2021/05/08 06:04:33;;;;;;;12.90;6.45;;;17.30;69.10;;;;;;4946642;28;20477;-59
2021/05/08 06:07:00;;;;;;;9.30;6.30;;;16.60;72.90;;;;;;4962552;28;20889;-52
2021/05/08 06:09:26;;;;;;;9.38;6.00;;;16.50;75.00;;;;;;4964300;28;20396;-52
2021/05/08 06:11:56;;;;;;;9.82;5.75;;;16.30;74.50;;;;;;4953506;28;20406;-54
2021/05/08 06:14:26;;;;;;;9.82;6.50;;;16.40;74.00;;;;;;4953707;29;20465;-51
2021/05/08 06:16:55;;;;;;;8.38;5.78;;;16.50;74.00;;;;;;4952780;28;20390;-52
2021/05/08 06:19:20;;;;;;;9.32;5.90;;;16.70;73.70;;;;;;4972391;28;20412;-54
2021/05/08 06:21:46;;;;;;;8.83;6.00;;;16.90;72.20;;;;;;4970903;28;20404;-52
2021/05/08 06:24:12;;;;;;;9.80;6.27;;;17.20;71.80;;;;;;4972622;28;20400;-53
2021/05/08 06:26:37;;;;;;;8.10;5.45;;;17.10;70.70;;;;;;4971911;28;20393;-58
2021/05/08 06:29:04;;;;;;;10.50;6.53;;;17.10;69.80;;;;;;4953129;29;20521;-51
2021/05/08 06:31:30;;;;;;;11.35;6.30;;;17.10;70.90;;;;;;4953236;29;20386;-51
2021/05/08 06:33:55;;;;;;;9.27;5.93;;;18.00;71.20;;;;;;4952398;29;20589;-51
2021/05/08 06:36:22;;;;;;;11.85;6.80;;;18.40;68.90;;;;;;4943257;28;20393;-52
2021/05/08 06:38:47;;;;;;;9.93;6.43;;;18.60;68.90;;;;;;4970537;28;20839;-52
2021/05/08 06:41:13;;;;;;;10.30;6.40;;;18.70;66.10;;;;;;4972520;28;20392;-56
2021/05/08 06:43:39;;;;;;;9.93;5.97;;;19.60;68.70;;;;;;4971829;28;20431;-56
2021/05/08 06:46:05;;;;;;;8.77;5.80;;;19.80;65.70;;;;;;4972296;28;20855;-55
2021/05/08 06:48:30;;;;;;;15.70;5.97;;;19.50;61.40;;;;;;4972418;28;20395;-57
2021/05/08 06:50:56;;;;;;;10.75;6.50;;;19.00;65.20;;;;;;4971490;28;20427;-57
2021/05/08 06:53:21;;;;;;;11.27;6.10;;;18.60;66.10;;;;;;4972327;28;20423;-56
2021/05/08 06:55:47;;;;;;;13.90;6.60;;;18.60;68.80;;;;;;4971441;28;20424;-56
2021/05/08 06:58:13;;;;;;;8.50;5.23;;;18.80;69.00;;;;;;4972088;28;20844;-55
2021/05/08 07:00:38;;;;;;;9.60;5.80;;;18.70;66.50;;;;;;4961177;28;20484;-56
2021/05/08 07:03:04;;;;;;;10.30;6.33;;;18.90;67.90;;;;;;4955909;28;20394;-56
2021/05/08 07:05:31;;;;;;;9.45;5.32;;;19.70;64.30;;;;;;4967834;28;20906;-56
2021/05/08 07:08:01;;;;;;;10.85;6.25;;;20.20;59.90;;;;;;4962721;28;20767;-57
2021/05/08 07:10:27;;;;;;;9.55;5.50;;;20.20;63.60;;;;;;4958170;28;20404;-56
2021/05/08 07:12:53;;;;;;;8.88;5.85;;;20.40;59.40;;;;;;4964307;28;20401;-55
2021/05/08 07:15:18;;;;;;;8.17;4.70;;;19.80;63.00;;;;;;4961252;28;20772;-56
2021/05/08 07:17:44;;;;;;;10.00;5.20;;;19.90;64.20;;;;;;4958027;28;20396;-56
2021/05/08 07:20:10;;;;;;;9.90;5.30;;;21.30;59.30;;;;;;4961590;28;20815;-56
2021/05/08 07:22:36;;;;;;;9.15;5.90;;;21.80;58.10;;;;;;4947430;28;21103;-56
2021/05/08 07:25:01;;;;;;;9.50;5.50;;;21.80;55.40;;;;;;4952070;28;20488;-56
2021/05/08 07:27:27;;;;;;;9.20;5.20;;;21.10;57.40;;;;;;4958145;28;20757;-56
2021/05/08 07:29:53;;;;;;;10.80;5.50;;;21.00;56.70;;;;;;4968933;28;20405;-56
2021/05/08 07:32:18;;;;;;;9.05;5.53;;;20.60;58.00;;;;;;4961141;28;20385;-56
2021/05/08 07:34:44;;;;;;;9.30;5.50;;;20.20;57.30;;;;;;4951195;29;20480;-56
2021/05/08 07:37:10;;;;;;;10.18;5.20;;;20.10;57.80;;;;;;4960116;28;20400;-56
2021/05/08 07:39:36;;;;;;;8.83;5.17;;;19.80;58.40;;;;;;4963803;28;20428;-56
2021/05/08 07:42:01;;;;;;;8.65;5.15;;;19.50;56.90;;;;;;4964218;28;20491;-57
2021/05/08 07:44:27;;;;;;;9.20;5.40;;;19.70;58.80;;;;;;4962889;28;20484;-56
2021/05/08 07:46:53;;;;;;;9.18;5.93;;;20.20;59.20;;;;;;4961802;28;20883;-55
2021/05/08 07:49:18;;;;;;;9.93;6.00;;;20.70;57.10;;;;;;4968719;28;20388;-56
2021/05/08 07:51:44;;;;;;;7.90;5.00;;;21.60;56.10;;;;;;4970232;28;20455;-56
2021/05/08 07:54:10;;;;;;;8.03;5.30;;;21.60;54.90;;;;;;4961405;28;20396;-55
2021/05/08 07:56:37;;;;;;;8.48;4.80;;;21.00;54.50;;;;;;4966196;28;20400;-55
2021/05/08 07:59:03;;;;;;;9.23;4.97;;;20.80;53.70;;;;;;4970906;28;20423;-55
2021/05/08 08:01:29;;;;;;;7.88;4.30;;;20.70;54.00;;;;;;4969959;28;20403;-54
2021/05/08 08:03:54;;;;;;;8.93;5.00;;;20.70;55.20;;;;;;4964764;28;20392;-55
2021/05/08 08:06:20;;;;;;;8.90;4.60;;;21.60;56.00;;;;;;4960670;28;20486;-56
2021/05/08 08:08:46;;;;;;;11.82;4.85;;;22.80;53.50;;;;;;4969930;28;20392;-56
2021/05/08 08:11:11;;;;;;;7.80;3.80;;;23.90;52.00;;;;;;4951273;29;20742;-55
2021/05/08 08:13:37;;;;;;;6.60;3.50;;;23.90;50.00;;;;;;4965860;28;20408;-55
2021/05/08 08:16:03;;;;;;;7.60;3.80;;;23.40;50.80;;;;;;4958595;28;20704;-55
2021/05/08 08:18:29;;;;;;;6.60;3.30;;;23.80;48.30;;;;;;4960260;28;20841;-55
2021/05/08 08:20:54;;;;;;;7.77;3.63;;;23.90;46.90;;;;;;4957314;28;20413;-55
2021/05/08 08:23:20;;;;;;;7.70;3.70;;;24.70;46.80;;;;;;4954517;28;20895;-56
2021/05/08 08:25:48;;;;;;;9.00;3.90;;;24.70;44.80;;;;;;4958015;28;20405;-56
2021/05/08 08:28:14;;;;;;;7.00;3.90;;;24.30;46.70;;;;;;4946287;28;20443;-56
2021/05/08 08:30:40;;;;;;;5.90;2.87;;;24.00;44.30;;;;;;4959260;28;20455;-56
2021/05/08 08:33:05;;;;;;;6.53;3.50;;;23.60;45.60;;;;;;4962142;28;20397;-56
2021/05/08 08:35:31;;;;;;;6.30;3.20;;;23.60;45.10;;;;;;4960686;28;20414;-53
2021/05/08 08:37:57;;;;;;;6.85;3.00;;;23.90;45.50;;;;;;4962534;28;20946;-53
2021/05/08 08:40:23;;;;;;;5.90;3.17;;;23.00;45.60;;;;;;4969535;28;20918;-52
2021/05/08 08:42:48;;;;;;;6.70;3.30;;;23.50;48.30;;;;;;4968902;28;20499;-52
2021/05/08 08:45:14;;;;;;;5.40;2.80;;;24.00;45.20;;;;;;4968759;28;20844;-52
2021/05/08 08:47:40;;;;;;;6.80;3.67;;;22.90;47.20;;;;;;4970417;28;20397;-52
2021/05/08 08:50:11;;;;;;;6.65;3.60;;;22.80;46.90;;;;;;4969540;28;20388;-52
2021/05/08 08:52:38;;;;;;;7.32;3.20;;;22.60;48.50;;;;;;4967505;28;20388;-53
2021/05/08 08:55:07;;;;;;;6.40;3.00;;;21.80;47.90;;;;;;4957824;28;20404;-53
2021/05/08 08:57:36;;;;;;;5.82;2.90;;;21.80;48.10;;;;;;4970076;28;20396;-52
2021/05/08 09:00:06;;;;;;;6.90;2.55;;;21.90;47.00;;;;;;4969242;28;20699;-53
2021/05/08 09:02:32;;;;;;;5.63;2.28;;;21.90;46.40;;;;;;4970432;28;20420;-52
2021/05/08 09:04:58;;;;;;;6.40;2.15;;;22.50;45.60;;;;;;4969848;28;20384;-52
2021/05/08 09:07:27;;;;;;;5.40;2.50;;;23.20;44.60;;;;;;4969171;28;20393;-52
2021/05/08 09:09:53;;;;;;;6.80;2.93;;;23.20;44.50;;;;;;4968716;28;20418;-54
2021/05/08 09:12:19;;;;;;;6.60;2.70;;;21.80;46.60;;;;;;4970288;28;20455;-52
2021/05/08 09:14:49;;;;;;;5.18;2.40;;;22.10;45.80;;;;;;4969821;28;20396;-55
2021/05/08 09:17:18;;;;;;;5.70;2.00;;;21.80;44.80;;;;;;4969749;28;20385;-52
2021/05/08 09:19:55;;;;;;;6.80;2.50;;;20.70;46.10;;;;;;4969902;28;20412;-57
2021/05/08 09:22:40;;;;;;;5.40;2.20;;;19.00;48.20;;;;;;4970133;28;20487;-52
2021/05/08 09:25:17;;;;;;;5.47;1.90;;;19.00;49.80;;;;;;4969106;28;20467;-53
2021/05/08 09:27:50;;;;;;;5.95;2.30;;;19.30;47.30;;;;;;4969211;28;20489;-57
2021/05/08 09:30:18;;;;;;;5.40;2.20;;;19.20;47.50;;;;;;4970050;28;20440;-52
2021/05/08 09:32:51;;;;;;;5.20;2.10;;;19.30;49.20;;;;;;4973683;28;20428;-57
2021/05/08 09:35:36;;;;;;;6.57;2.65;;;19.80;49.90;;;;;;4973493;28;20380;-56
2021/05/08 09:38:16;;;;;;;5.10;1.67;;;19.60;48.10;;;;;;4972697;28;20927;-52
2021/05/08 09:40:43;;;;;;;4.97;2.00;;;19.70;48.50;;;;;;4973267;28;20469;-53
2021/05/08 09:43:14;;;;;;;5.43;1.95;;;19.80;47.90;;;;;;4972582;28;20384;-52
2021/05/08 09:45:42;;;;;;;5.00;2.35;;;19.90;47.20;;;;;;4973103;28;20899;-52
2021/05/08 09:48:35;;;;;;;5.47;2.20;;;19.90;47.10;;;;;;4972892;28;20406;-53
2021/05/08 09:51:17;;;;;;;5.93;2.58;;;19.80;48.00;;;;;;4965861;28;20908;-53
2021/05/08 09:53:43;;;;;;;4.67;1.60;;;19.90;47.30;;;;;;4972987;28;20836;-53
2021/05/08 09:56:39;;;;;;;5.60;2.10;;;20.30;46.10;;;;;;4972263;28;20412;-53
2021/05/08 09:59:34;;;;;;;6.20;2.30;;;20.40;46.20;;;;;;4965353;28;20424;-53
2021/05/08 10:02:03;;;;;;;6.30;2.30;;;20.40;46.30;;;;;;4972140;28;20442;-54
2021/05/08 10:04:34;;;;;;;5.25;2.20;;;20.80;46.20;;;;;;4972861;28;20487;-54
2021/05/08 10:07:21;;;;;;;6.22;2.00;;;21.20;45.70;;;;;;4972235;28;20420;-53
2021/05/08 10:09:49;;;;;;;6.78;2.70;;;20.90;48.00;;;;;;4972511;28;20396;-59
2021/05/08 10:12:19;;;;;;;5.95;2.72;;;22.00;47.80;;;;;;4972780;28;20388;-54
2021/05/08 10:14:50;;;;;;;6.80;1.90;;;23.90;45.80;;;;;;4972671;28;20423;-59
2021/05/08 10:17:19;;;;;;;5.15;2.50;;;23.30;42.90;;;;;;4970596;28;20729;-51
2021/05/08 10:19:47;;;;;;;5.25;2.40;;;23.20;42.80;;;;;;4972418;28;20423;-55
2021/05/08 10:22:13;;;;;;;5.50;1.80;;;23.60;40.60;;;;;;4972459;28;20483;-54
2021/05/08 10:24:42;;;;;;;5.88;2.00;;;24.80;42.20;;;;;;4972379;28;20403;-54
2021/05/08 10:27:09;;;;;;;4.75;1.80;;;25.10;38.50;;;;;;4971910;28;20384;-54
2021/05/08 10:29:41;;;;;;;5.10;1.90;;;25.20;39.60;;;;;;4972601;28;20934;-53
2021/05/08 10:32:12;;;;;;;6.30;2.40;;;24.90;39.70;;;;;;4971477;28;20405;-54
2021/05/08 10:34:49;;;;;;;7.00;2.40;;;23.30;40.10;;;;;;4972451;28;20462;-51
2021/05/08 10:37:15;;;;;;;5.05;2.10;;;22.90;41.90;;;;;;4971925;28;20423;-53
2021/05/08 10:39:48;;;;;;;5.22;2.10;;;22.20;41.90;;;;;;4955038;28;20414;-53
2021/05/08 10:42:38;;;;;;;5.80;2.10;;;21.70;45.60;;;;;;4971603;28;20491;-53
2021/05/08 10:45:25;;;;;;;6.40;1.60;;;21.60;46.50;;;;;;4962376;28;20443;-53
2021/05/08 10:50:21;;;;;;;5.33;2.03;;;20.80;45.00;;;;;;4972240;28;20487;-53
2021/05/08 10:52:58;;;;;;;4.60;1.70;;;21.00;45.10;;;;;;4971708;28;20392;-59
2021/05/08 10:55:24;;;;;;;5.20;2.10;;;21.40;45.10;;;;;;4972337;28;20391;-56
2021/05/08 10:58:15;;;;;;;5.20;1.90;;;21.40;43.30;;;;;;4971165;28;20479;-55
2021/05/08 11:00:50;;;;;;;4.78;1.80;;;23.30;45.80;;;;;;4971976;28;20420;-54
2021/05/08 11:03:18;;;;;;;6.32;3.10;;;21.90;43.30;;;;;;4959710;28;20413;-53
2021/05/08 11:05:50;;;;;;;5.83;2.40;;;22.20;42.00;;;;;;4952442;29;20448;-54
2021/05/08 11:08:25;;;;;;;5.10;1.80;;;22.30;42.80;;;;;;4952536;29;20397;-56
2021/05/08 11:11:00;;;;;;;5.00;2.40;;;21.90;45.90;;;;;;4951995;28;20405;-57
2021/05/08 11:13:28;;;;;;;6.88;2.50;;;21.90;45.60;;;;;;4962728;28;20395;-56
2021/05/08 11:15:54;;;;;;;4.80;2.10;;;21.70;44.70;;;;;;4960549;28;20400;-55
2021/05/08 11:18:36;;;;;;;4.77;2.03;;;21.90;43.10;;;;;;4968163;28;20393;-55
2021/05/08 11:21:08;;;;;;;5.70;2.47;;;22.20;44.30;;;;;;4965427;28;20412;-55
2021/05/08 11:23:51;;;;;;;7.22;2.10;;;22.20;43.80;;;;;;4961613;28;20432;-55
2021/05/08 11:26:23;;;;;;;5.00;2.20;;;22.40;44.60;;;;;;4962678;28;20399;-56
2021/05/08 11:28:54;;;;;;;6.17;2.53;;;22.20;43.30;;;;;;4961706;28;20459;-57
2021/05/08 11:31:24;;;;;;;4.50;1.80;;;22.20;43.60;;;;;;4960211;28;20827;-56
2021/05/08 11:33:50;;;;;;;6.25;2.20;;;22.40;44.80;;;;;;4962488;28;20392;-58
2021/05/08 11:36:16;;;;;;;7.47;3.10;;;22.60;45.10;;;;;;4959546;28;20394;-56
2021/05/08 11:38:42;;;;;;;5.30;2.78;;;22.10;45.10;;;;;;4958756;28;20469;-57
2021/05/08 11:41:24;;;;;;;6.28;2.25;;;21.70;45.70;;;;;;4951003;29;20402;-56
2021/05/08 11:43:54;;;;;;;5.60;2.70;;;21.50;47.00;;;;;;4933948;28;20390;-57
2021/05/08 11:46:24;;;;;;;6.63;2.80;;;21.60;46.20;;;;;;4962100;28;20421;-56
2021/05/08 11:48:50;;;;;;;5.57;2.20;;;21.30;46.20;;;;;;4957227;28;20429;-57
2021/05/08 11:51:16;;;;;;;5.00;2.47;;;20.50;47.60;;;;;;4966632;28;20412;-56
2021/05/08 11:53:42;;;;;;;7.55;3.25;;;20.40;47.70;;;;;;4970408;28;20860;-56
2021/05/08 11:56:08;;;;;;;6.70;2.85;;;20.60;48.10;;;;;;4969377;28;20407;-56
2021/05/08 11:58:34;;;;;;;6.50;2.60;;;21.00;48.10;;;;;;4970830;28;20403;-56
2021/05/08 12:00:59;;;;;;;5.03;2.60;;;21.40;47.10;;;;;;4969606;28;20416;-56
2021/05/08 12:03:25;;;;;;;5.80;2.38;;;21.10;46.70;;;;;;4970739;28;20469;-56
2021/05/08 12:05:52;;;;;;;6.13;2.25;;;20.90;47.30;;;;;;4968889;28;20402;-56
2021/05/08 12:08:23;;;;;;;8.20;3.70;;;20.30;48.50;;;;;;4970978;28;20403;-56
2021/05/08 12:10:50;;;;;;;6.60;2.50;;;20.50;48.60;;;;;;4953405;28;20400;-56
2021/05/08 12:13:16;;;;;;;4.80;2.20;;;19.90;46.60;;;;;;4970632;28;20472;-56
2021/05/08 12:15:51;;;;;;;5.10;2.00;;;20.80;47.60;;;;;;4971124;28;20400;-56
2021/05/08 12:18:19;;;;;;;6.00;2.38;;;20.60;45.70;;;;;;4970872;28;20388;-56
2021/05/08 12:20:49;;;;;;;5.97;2.20;;;20.10;45.40;;;;;;4970497;28;20412;-56
2021/05/08 12:23:23;;;;;;;6.20;2.10;;;20.10;48.80;;;;;;4971086;28;20407;-56
2021/05/08 12:26:07;;;;;;;5.65;2.28;;;20.40;47.70;;;;;;4970339;28;20388;-57
2021/05/08 12:28:35;;;;;;;5.63;2.30;;;20.70;48.00;;;;;;4970538;28;20415;-56
2021/05/08 12:31:20;;;;;;;4.57;2.10;;;20.90;47.70;;;;;;4969814;28;20414;-55
2021/05/08 12:33:46;;;;;;;6.20;2.30;;;20.70;46.00;;;;;;4970586;28;20429;-56
2021/05/08 12:36:21;;;;;;;4.40;1.80;;;20.70;47.00;;;;;;4969431;28;20784;-56
2021/05/08 12:38:47;;;;;;;4.63;1.90;;;20.00;45.90;;;;;;4970876;28;20388;-58
2021/05/08 12:41:31;;;;;;;6.30;2.20;;;20.50;45.80;;;;;;4970142;28;20458;-56
2021/05/08 12:44:11;;;;;;;4.70;1.90;;;19.90;47.30;;;;;;4969884;28;20396;-56
2021/05/08 12:47:00;;;;;;;6.88;2.10;;;20.10;48.00;;;;;;4964312;28;20912;-56
2021/05/08 12:49:31;;;;;;;5.90;2.20;;;20.30;46.10;;;;;;4965124;28;20396;-56